sensor_id;sensor_type;location;lat;lon;timestamp;P1;durP1;ratioP1;P2;durP2;ratioP2
2750;SDS011;1383;48.362;10.908;2023-05-20T00:01:54;5.67;;;5.07;;
2750;SDS011;1383;48.362;10.908;2023-05-20T00:04:21;6.03;;;5.53;;
2750;SDS011;1383;48.362;10.908;2023-05-20T00:06:48;6.30;;;5.70;;
2750;SDS011;1383;48.362;10.908;2023-05-20T00:09:14;9.80;;;7.80;;
2750;SDS011;1383;48.362;10.908;2023-05-20T00:11:42;7.00;;;6.00;;
2750;SDS011;1383;48.362;10.908;2023-05-20T00:14:09;5.40;;;5.00;;
2750;SDS011;1383;48.362;10.908;2023-05-20T00:16:36;5.57;;;4.93;;
2750;SDS011;1383;48.362;10.908;2023-05-20T00:19:03;6.10;;;5.50;;
2750;SDS011;1383;48.362;10.908;2023-05-20T00:21:29;5.73;;;5.00;;
2750;SDS011;1383;48.362;10.908;2023-05-20T00:23:56;7.83;;;6.80;;
2750;SDS011;1383;48.362;10.908;2023-05-20T00:26:23;5.23;;;4.73;;
2750;SDS011;1383;48.362;10.908;2023-05-20T00:28:51;6.07;;;5.67;;
2750;SDS011;1383;48.362;10.908;2023-05-20T00:31:18;6.10;;;5.50;;
2750;SDS011;1383;48.362;10.908;2023-05-20T00:33:44;6.03;;;5.27;;
2750;SDS011;1383;48.362;10.908;2023-05-20T00:36:11;6.93;;;5.67;;
2750;SDS011;1383;48.362;10.908;2023-05-20T00:38:38;5.67;;;5.13;;
2750;SDS011;1383;48.362;10.908;2023-05-20T00:41:05;5.20;;;4.80;;
2750;SDS011;1383;48.362;10.908;2023-05-20T00:43:32;6.33;;;5.73;;
2750;SDS011;1383;48.362;10.908;2023-05-20T00:45:59;5.93;;;5.43;;
2750;SDS011;1383;48.362;10.908;2023-05-20T00:48:28;5.03;;;4.60;;
2750;SDS011;1383;48.362;10.908;2023-05-20T00:51:01;5.80;;;5.30;;
2750;SDS011;1383;48.362;10.908;2023-05-20T00:53:30;5.20;;;4.70;;
2750;SDS011;1383;48.362;10.908;2023-05-20T00:55:57;7.90;;;6.00;;
2750;SDS011;1383;48.362;10.908;2023-05-20T00:58:24;5.83;;;5.23;;
2750;SDS011;1383;48.362;10.908;2023-05-20T01:00:51;8.20;;;4.90;;
2750;SDS011;1383;48.362;10.908;2023-05-20T01:03:18;6.20;;;5.70;;
2750;SDS011;1383;48.362;10.908;2023-05-20T01:05:45;7.10;;;5.17;;
2750;SDS011;1383;48.362;10.908;2023-05-20T01:08:12;5.90;;;5.40;;
2750;SDS011;1383;48.362;10.908;2023-05-20T01:10:40;6.27;;;5.00;;
2750;SDS011;1383;48.362;10.908;2023-05-20T01:13:13;6.93;;;5.80;;
2750;SDS011;1383;48.362;10.908;2023-05-20T01:15:45;5.83;;;5.33;;
2750;SDS011;1383;48.362;10.908;2023-05-20T01:18:14;5.70;;;5.10;;
2750;SDS011;1383;48.362;10.908;2023-05-20T01:20:46;6.03;;;5.37;;
2750;SDS011;1383;48.362;10.908;2023-05-20T01:23:16;6.70;;;5.50;;
2750;SDS011;1383;48.362;10.908;2023-05-20T01:25:42;5.83;;;5.23;;
2750;SDS011;1383;48.362;10.908;2023-05-20T01:28:09;6.13;;;5.40;;
2750;SDS011;1383;48.362;10.908;2023-05-20T01:30:43;5.20;;;4.70;;
2750;SDS011;1383;48.362;10.908;2023-05-20T01:33:15;5.50;;;5.00;;
2750;SDS011;1383;48.362;10.908;2023-05-20T01:35:44;7.00;;;5.80;;
2750;SDS011;1383;48.362;10.908;2023-05-20T01:38:12;10.40;;;5.10;;
2750;SDS011;1383;48.362;10.908;2023-05-20T01:40:40;6.23;;;5.10;;
2750;SDS011;1383;48.362;10.908;2023-05-20T01:43:08;7.30;;;5.93;;
2750;SDS011;1383;48.362;10.908;2023-05-20T01:45:36;7.70;;;5.80;;
2750;SDS011;1383;48.362;10.908;2023-05-20T01:48:03;6.40;;;5.87;;
2750;SDS011;1383;48.362;10.908;2023-05-20T01:50:30;7.40;;;5.57;;
2750;SDS011;1383;48.362;10.908;2023-05-20T01:52:57;5.90;;;5.40;;
2750;SDS011;1383;48.362;10.908;2023-05-20T01:55:24;6.23;;;5.63;;
2750;SDS011;1383;48.362;10.908;2023-05-20T01:57:51;4.90;;;4.50;;
2750;SDS011;1383;48.362;10.908;2023-05-20T02:00:18;5.90;;;5.30;;
2750;SDS011;1383;48.362;10.908;2023-05-20T02:02:44;4.83;;;4.43;;
2750;SDS011;1383;48.362;10.908;2023-05-20T02:05:11;5.17;;;4.70;;
2750;SDS011;1383;48.362;10.908;2023-05-20T02:07:38;5.53;;;5.03;;
2750;SDS011;1383;48.362;10.908;2023-05-20T02:10:05;7.13;;;4.50;;
2750;SDS011;1383;48.362;10.908;2023-05-20T02:12:32;5.93;;;5.43;;
2750;SDS011;1383;48.362;10.908;2023-05-20T02:14:59;5.33;;;4.83;;
2750;SDS011;1383;48.362;10.908;2023-05-20T02:17:26;5.17;;;4.77;;
2750;SDS011;1383;48.362;10.908;2023-05-20T02:19:52;5.90;;;5.40;;
2750;SDS011;1383;48.362;10.908;2023-05-20T02:22:19;5.90;;;5.30;;
2750;SDS011;1383;48.362;10.908;2023-05-20T02:24:46;5.33;;;4.60;;
2750;SDS011;1383;48.362;10.908;2023-05-20T02:27:13;5.80;;;5.30;;
2750;SDS011;1383;48.362;10.908;2023-05-20T02:29:41;6.00;;;5.40;;
2750;SDS011;1383;48.362;10.908;2023-05-20T02:32:09;5.13;;;4.60;;
2750;SDS011;1383;48.362;10.908;2023-05-20T02:34:36;6.10;;;5.60;;
2750;SDS011;1383;48.362;10.908;2023-05-20T02:37:03;4.87;;;4.40;;
2750;SDS011;1383;48.362;10.908;2023-05-20T02:39:30;9.07;;;5.77;;
2750;SDS011;1383;48.362;10.908;2023-05-20T02:41:57;5.70;;;5.20;;
2750;SDS011;1383;48.362;10.908;2023-05-20T02:44:23;7.20;;;6.50;;
2750;SDS011;1383;48.362;10.908;2023-05-20T02:46:50;6.40;;;5.80;;
2750;SDS011;1383;48.362;10.908;2023-05-20T02:49:17;5.93;;;5.43;;
2750;SDS011;1383;48.362;10.908;2023-05-20T02:51:44;6.60;;;6.00;;
2750;SDS011;1383;48.362;10.908;2023-05-20T02:54:10;6.47;;;5.97;;
2750;SDS011;1383;48.362;10.908;2023-05-20T02:56:37;7.00;;;6.30;;
2750;SDS011;1383;48.362;10.908;2023-05-20T02:59:04;6.57;;;5.93;;
2750;SDS011;1383;48.362;10.908;2023-05-20T03:01:32;7.47;;;6.77;;
2750;SDS011;1383;48.362;10.908;2023-05-20T03:04:01;6.43;;;5.83;;
2750;SDS011;1383;48.362;10.908;2023-05-20T03:06:28;6.10;;;5.50;;
2750;SDS011;1383;48.362;10.908;2023-05-20T03:08:57;6.37;;;5.73;;
2750;SDS011;1383;48.362;10.908;2023-05-20T03:11:24;6.20;;;5.60;;
2750;SDS011;1383;48.362;10.908;2023-05-20T03:13:51;6.27;;;5.67;;
2750;SDS011;1383;48.362;10.908;2023-05-20T03:16:18;7.33;;;6.63;;
2750;SDS011;1383;48.362;10.908;2023-05-20T03:18:45;7.37;;;6.20;;
2750;SDS011;1383;48.362;10.908;2023-05-20T03:21:11;6.53;;;5.93;;
2750;SDS011;1383;48.362;10.908;2023-05-20T03:23:38;6.90;;;6.30;;
2750;SDS011;1383;48.362;10.908;2023-05-20T03:26:05;6.70;;;6.10;;
2750;SDS011;1383;48.362;10.908;2023-05-20T03:28:32;6.80;;;6.10;;
2750;SDS011;1383;48.362;10.908;2023-05-20T03:30:59;7.17;;;6.47;;
2750;SDS011;1383;48.362;10.908;2023-05-20T03:33:28;8.13;;;6.93;;
2750;SDS011;1383;48.362;10.908;2023-05-20T03:35:55;8.03;;;7.23;;
2750;SDS011;1383;48.362;10.908;2023-05-20T03:38:22;7.30;;;6.60;;
2750;SDS011;1383;48.362;10.908;2023-05-20T03:40:48;8.27;;;7.47;;
2750;SDS011;1383;48.362;10.908;2023-05-20T03:43:15;7.63;;;6.83;;
2750;SDS011;1383;48.362;10.908;2023-05-20T03:45:42;6.33;;;5.73;;
2750;SDS011;1383;48.362;10.908;2023-05-20T03:48:09;7.47;;;6.77;;
2750;SDS011;1383;48.362;10.908;2023-05-20T03:50:36;9.60;;;8.70;;
2750;SDS011;1383;48.362;10.908;2023-05-20T03:53:02;7.90;;;6.97;;
2750;SDS011;1383;48.362;10.908;2023-05-20T03:55:29;7.73;;;6.93;;
2750;SDS011;1383;48.362;10.908;2023-05-20T03:57:57;7.40;;;6.80;;
2750;SDS011;1383;48.362;10.908;2023-05-20T04:00:24;8.30;;;7.53;;
2750;SDS011;1383;48.362;10.908;2023-05-20T04:02:51;7.80;;;6.63;;
2750;SDS011;1383;48.362;10.908;2023-05-20T04:05:18;9.63;;;7.63;;
2750;SDS011;1383;48.362;10.908;2023-05-20T04:07:45;6.40;;;5.70;;
2750;SDS011;1383;48.362;10.908;2023-05-20T04:10:12;8.37;;;6.90;;
2750;SDS011;1383;48.362;10.908;2023-05-20T04:12:38;8.87;;;7.97;;
2750;SDS011;1383;48.362;10.908;2023-05-20T04:15:06;10.93;;;8.30;;
2750;SDS011;1383;48.362;10.908;2023-05-20T04:17:34;8.77;;;7.87;;
2750;SDS011;1383;48.362;10.908;2023-05-20T04:20:03;8.50;;;6.50;;
2750;SDS011;1383;48.362;10.908;2023-05-20T04:22:32;8.83;;;7.80;;
2750;SDS011;1383;48.362;10.908;2023-05-20T04:24:59;7.50;;;6.77;;
2750;SDS011;1383;48.362;10.908;2023-05-20T04:27:29;7.57;;;6.87;;
2750;SDS011;1383;48.362;10.908;2023-05-20T04:29:58;8.40;;;7.40;;
2750;SDS011;1383;48.362;10.908;2023-05-20T04:32:27;8.43;;;7.63;;
2750;SDS011;1383;48.362;10.908;2023-05-20T04:34:54;7.83;;;7.13;;
2750;SDS011;1383;48.362;10.908;2023-05-20T04:37:21;11.00;;;8.00;;
2750;SDS011;1383;48.362;10.908;2023-05-20T04:39:47;7.20;;;6.60;;
2750;SDS011;1383;48.362;10.908;2023-05-20T04:42:15;11.57;;;8.23;;
2750;SDS011;1383;48.362;10.908;2023-05-20T04:44:46;8.17;;;7.47;;
2750;SDS011;1383;48.362;10.908;2023-05-20T04:47:14;8.20;;;6.90;;
2750;SDS011;1383;48.362;10.908;2023-05-20T04:49:41;10.07;;;7.30;;
2750;SDS011;1383;48.362;10.908;2023-05-20T04:52:07;9.00;;;8.10;;
2750;SDS011;1383;48.362;10.908;2023-05-20T04:54:35;9.30;;;8.37;;
2750;SDS011;1383;48.362;10.908;2023-05-20T04:57:01;7.90;;;7.10;;
2750;SDS011;1383;48.362;10.908;2023-05-20T04:59:28;8.20;;;7.40;;
2750;SDS011;1383;48.362;10.908;2023-05-20T05:01:55;8.70;;;7.90;;
2750;SDS011;1383;48.362;10.908;2023-05-20T05:04:22;9.00;;;8.10;;
2750;SDS011;1383;48.362;10.908;2023-05-20T05:06:49;8.97;;;7.50;;
2750;SDS011;1383;48.362;10.908;2023-05-20T05:09:16;9.40;;;8.50;;
2750;SDS011;1383;48.362;10.908;2023-05-20T05:11:42;9.60;;;8.70;;
2750;SDS011;1383;48.362;10.908;2023-05-20T05:14:09;9.67;;;8.10;;
2750;SDS011;1383;48.362;10.908;2023-05-20T05:16:36;11.00;;;9.13;;
2750;SDS011;1383;48.362;10.908;2023-05-20T05:19:03;11.20;;;9.13;;
2750;SDS011;1383;48.362;10.908;2023-05-20T05:21:29;8.63;;;7.60;;
2750;SDS011;1383;48.362;10.908;2023-05-20T05:23:56;9.70;;;8.70;;
2750;SDS011;1383;48.362;10.908;2023-05-20T05:26:23;11.20;;;9.33;;
2750;SDS011;1383;48.362;10.908;2023-05-20T05:28:53;11.20;;;9.23;;
2750;SDS011;1383;48.362;10.908;2023-05-20T05:31:20;10.93;;;8.47;;
2750;SDS011;1383;48.362;10.908;2023-05-20T05:33:47;12.00;;;10.17;;
2750;SDS011;1383;48.362;10.908;2023-05-20T05:36:14;14.70;;;11.50;;
2750;SDS011;1383;48.362;10.908;2023-05-20T05:38:41;13.30;;;11.90;;
2750;SDS011;1383;48.362;10.908;2023-05-20T05:41:09;12.53;;;11.20;;
2750;SDS011;1383;48.362;10.908;2023-05-20T05:43:36;14.30;;;11.90;;
2750;SDS011;1383;48.362;10.908;2023-05-20T05:46:03;19.13;;;15.73;;
2750;SDS011;1383;48.362;10.908;2023-05-20T05:48:30;16.60;;;11.93;;
2750;SDS011;1383;48.362;10.908;2023-05-20T05:50:57;13.23;;;11.20;;
2750;SDS011;1383;48.362;10.908;2023-05-20T05:53:23;13.90;;;11.83;;
2750;SDS011;1383;48.362;10.908;2023-05-20T05:55:50;14.50;;;13.00;;
2750;SDS011;1383;48.362;10.908;2023-05-20T05:58:17;14.07;;;12.57;;
2750;SDS011;1383;48.362;10.908;2023-05-20T06:00:44;17.60;;;11.83;;
2750;SDS011;1383;48.362;10.908;2023-05-20T06:03:11;14.50;;;12.83;;
2750;SDS011;1383;48.362;10.908;2023-05-20T06:05:38;14.10;;;12.00;;
2750;SDS011;1383;48.362;10.908;2023-05-20T06:08:04;15.00;;;12.10;;
2750;SDS011;1383;48.362;10.908;2023-05-20T06:10:31;18.80;;;12.70;;
2750;SDS011;1383;48.362;10.908;2023-05-20T06:12:58;15.60;;;13.20;;
2750;SDS011;1383;48.362;10.908;2023-05-20T06:15:25;14.63;;;11.33;;
2750;SDS011;1383;48.362;10.908;2023-05-20T06:17:52;14.30;;;12.80;;
2750;SDS011;1383;48.362;10.908;2023-05-20T06:20:18;13.30;;;11.10;;
2750;SDS011;1383;48.362;10.908;2023-05-20T06:22:45;14.00;;;11.83;;
2750;SDS011;1383;48.362;10.908;2023-05-20T06:25:12;14.33;;;12.00;;
2750;SDS011;1383;48.362;10.908;2023-05-20T06:27:39;13.83;;;11.27;;
2750;SDS011;1383;48.362;10.908;2023-05-20T06:30:06;15.90;;;12.60;;
2750;SDS011;1383;48.362;10.908;2023-05-20T06:32:33;14.00;;;12.47;;
2750;SDS011;1383;48.362;10.908;2023-05-20T06:35:00;20.73;;;14.70;;
2750;SDS011;1383;48.362;10.908;2023-05-20T06:37:27;15.17;;;10.70;;
2750;SDS011;1383;48.362;10.908;2023-05-20T06:39:54;14.27;;;12.93;;
2750;SDS011;1383;48.362;10.908;2023-05-20T06:42:21;26.63;;;13.53;;
2750;SDS011;1383;48.362;10.908;2023-05-20T06:44:48;18.53;;;13.13;;
2750;SDS011;1383;48.362;10.908;2023-05-20T06:47:15;15.80;;;11.90;;
2750;SDS011;1383;48.362;10.908;2023-05-20T06:49:43;12.20;;;11.00;;
2750;SDS011;1383;48.362;10.908;2023-05-20T06:52:12;14.93;;;11.70;;
2750;SDS011;1383;48.362;10.908;2023-05-20T06:54:39;13.70;;;11.80;;
2750;SDS011;1383;48.362;10.908;2023-05-20T06:57:07;13.40;;;10.10;;
2750;SDS011;1383;48.362;10.908;2023-05-20T06:59:34;14.00;;;11.87;;
2750;SDS011;1383;48.362;10.908;2023-05-20T07:02:02;13.33;;;11.80;;
2750;SDS011;1383;48.362;10.908;2023-05-20T07:04:29;17.73;;;11.13;;
2750;SDS011;1383;48.362;10.908;2023-05-20T07:06:56;15.63;;;11.37;;
2750;SDS011;1383;48.362;10.908;2023-05-20T07:09:23;17.87;;;11.73;;
2750;SDS011;1383;48.362;10.908;2023-05-20T07:11:50;17.50;;;12.70;;
2750;SDS011;1383;48.362;10.908;2023-05-20T07:14:16;12.27;;;10.97;;
2750;SDS011;1383;48.362;10.908;2023-05-20T07:16:43;13.60;;;11.53;;
2750;SDS011;1383;48.362;10.908;2023-05-20T07:19:10;12.90;;;10.93;;
2750;SDS011;1383;48.362;10.908;2023-05-20T07:21:37;17.17;;;12.07;;
2750;SDS011;1383;48.362;10.908;2023-05-20T07:24:04;18.40;;;11.83;;
2750;SDS011;1383;48.362;10.908;2023-05-20T07:26:31;12.80;;;10.77;;
2750;SDS011;1383;48.362;10.908;2023-05-20T07:29:02;12.87;;;11.60;;
2750;SDS011;1383;48.362;10.908;2023-05-20T07:31:30;11.00;;;9.90;;
2750;SDS011;1383;48.362;10.908;2023-05-20T07:33:57;11.20;;;10.30;;
2750;SDS011;1383;48.362;10.908;2023-05-20T07:36:26;13.97;;;11.23;;
2750;SDS011;1383;48.362;10.908;2023-05-20T07:38:54;14.77;;;11.43;;
2750;SDS011;1383;48.362;10.908;2023-05-20T07:41:28;20.80;;;13.03;;
2750;SDS011;1383;48.362;10.908;2023-05-20T07:43:55;14.60;;;10.70;;
2750;SDS011;1383;48.362;10.908;2023-05-20T07:46:22;12.00;;;11.00;;
2750;SDS011;1383;48.362;10.908;2023-05-20T07:48:49;25.73;;;18.67;;
2750;SDS011;1383;48.362;10.908;2023-05-20T07:51:16;13.67;;;12.30;;
2750;SDS011;1383;48.362;10.908;2023-05-20T07:53:44;30.57;;;13.40;;
2750;SDS011;1383;48.362;10.908;2023-05-20T07:56:10;12.73;;;11.30;;
2750;SDS011;1383;48.362;10.908;2023-05-20T07:58:39;11.03;;;10.13;;
2750;SDS011;1383;48.362;10.908;2023-05-20T08:01:08;11.10;;;10.07;;
2750;SDS011;1383;48.362;10.908;2023-05-20T08:03:35;11.10;;;10.00;;
2750;SDS011;1383;48.362;10.908;2023-05-20T08:06:02;13.97;;;10.47;;
2750;SDS011;1383;48.362;10.908;2023-05-20T08:08:29;11.17;;;10.07;;
2750;SDS011;1383;48.362;10.908;2023-05-20T08:10:56;10.87;;;9.63;;
2750;SDS011;1383;48.362;10.908;2023-05-20T08:13:22;11.17;;;10.03;;
2750;SDS011;1383;48.362;10.908;2023-05-20T08:15:51;15.83;;;9.77;;
2750;SDS011;1383;48.362;10.908;2023-05-20T08:18:19;17.20;;;9.77;;
2750;SDS011;1383;48.362;10.908;2023-05-20T08:20:46;11.37;;;10.17;;
2750;SDS011;1383;48.362;10.908;2023-05-20T08:23:13;11.40;;;10.30;;
2750;SDS011;1383;48.362;10.908;2023-05-20T08:25:39;10.53;;;9.53;;
2750;SDS011;1383;48.362;10.908;2023-05-20T08:28:06;10.57;;;9.63;;
2750;SDS011;1383;48.362;10.908;2023-05-20T08:30:33;9.03;;;8.30;;
2750;SDS011;1383;48.362;10.908;2023-05-20T08:33:00;10.80;;;9.27;;
2750;SDS011;1383;48.362;10.908;2023-05-20T08:35:27;9.07;;;8.27;;
2750;SDS011;1383;48.362;10.908;2023-05-20T08:37:54;11.37;;;9.80;;
2750;SDS011;1383;48.362;10.908;2023-05-20T08:40:21;10.70;;;9.70;;
2750;SDS011;1383;48.362;10.908;2023-05-20T08:42:49;14.03;;;10.50;;
2750;SDS011;1383;48.362;10.908;2023-05-20T08:45:19;10.37;;;9.47;;
2750;SDS011;1383;48.362;10.908;2023-05-20T08:47:49;10.67;;;9.57;;
2750;SDS011;1383;48.362;10.908;2023-05-20T08:50:16;11.83;;;8.77;;
2750;SDS011;1383;48.362;10.908;2023-05-20T08:52:44;9.37;;;8.57;;
2750;SDS011;1383;48.362;10.908;2023-05-20T08:55:23;9.20;;;8.33;;
2750;SDS011;1383;48.362;10.908;2023-05-20T08:57:53;9.93;;;7.30;;
2750;SDS011;1383;48.362;10.908;2023-05-20T09:00:21;9.07;;;7.80;;
2750;SDS011;1383;48.362;10.908;2023-05-20T09:02:52;8.90;;;8.00;;
2750;SDS011;1383;48.362;10.908;2023-05-20T09:05:20;8.30;;;7.50;;
2750;SDS011;1383;48.362;10.908;2023-05-20T09:07:47;10.07;;;9.17;;
2750;SDS011;1383;48.362;10.908;2023-05-20T09:10:14;15.93;;;7.90;;
2750;SDS011;1383;48.362;10.908;2023-05-20T09:12:41;10.43;;;9.43;;
2750;SDS011;1383;48.362;10.908;2023-05-20T09:15:09;10.63;;;9.63;;
2750;SDS011;1383;48.362;10.908;2023-05-20T09:17:36;10.50;;;8.40;;
2750;SDS011;1383;48.362;10.908;2023-05-20T09:20:08;9.90;;;8.13;;
2750;SDS011;1383;48.362;10.908;2023-05-20T09:22:37;7.83;;;7.13;;
2750;SDS011;1383;48.362;10.908;2023-05-20T09:25:05;11.87;;;7.10;;
2750;SDS011;1383;48.362;10.908;2023-05-20T09:27:33;7.90;;;7.20;;
2750;SDS011;1383;48.362;10.908;2023-05-20T09:30:00;9.47;;;8.47;;
2750;SDS011;1383;48.362;10.908;2023-05-20T09:32:26;8.60;;;7.80;;
2750;SDS011;1383;48.362;10.908;2023-05-20T09:34:54;8.17;;;7.47;;
2750;SDS011;1383;48.362;10.908;2023-05-20T09:37:21;6.57;;;6.07;;
2750;SDS011;1383;48.362;10.908;2023-05-20T09:40:04;7.70;;;6.90;;
2750;SDS011;1383;48.362;10.908;2023-05-20T09:42:43;7.50;;;6.80;;
2750;SDS011;1383;48.362;10.908;2023-05-20T09:45:28;7.30;;;6.53;;
2750;SDS011;1383;48.362;10.908;2023-05-20T09:47:55;9.33;;;8.50;;
2750;SDS011;1383;48.362;10.908;2023-05-20T09:50:23;7.30;;;6.60;;
2750;SDS011;1383;48.362;10.908;2023-05-20T09:52:52;9.10;;;7.00;;
2750;SDS011;1383;48.362;10.908;2023-05-20T09:55:20;7.50;;;6.57;;
2750;SDS011;1383;48.362;10.908;2023-05-20T09:57:49;18.50;;;8.03;;
2750;SDS011;1383;48.362;10.908;2023-05-20T10:00:17;12.40;;;9.20;;
2750;SDS011;1383;48.362;10.908;2023-05-20T10:02:46;12.47;;;9.90;;
2750;SDS011;1383;48.362;10.908;2023-05-20T10:05:20;8.47;;;7.77;;
2750;SDS011;1383;48.362;10.908;2023-05-20T10:10:43;7.87;;;6.90;;
2750;SDS011;1383;48.362;10.908;2023-05-20T10:16:12;5.90;;;5.40;;
2750;SDS011;1383;48.362;10.908;2023-05-20T10:21:25;8.00;;;6.50;;
2750;SDS011;1383;48.362;10.908;2023-05-20T10:23:52;7.03;;;6.43;;
2750;SDS011;1383;48.362;10.908;2023-05-20T10:26:19;7.70;;;6.60;;
2750;SDS011;1383;48.362;10.908;2023-05-20T10:28:47;6.17;;;5.60;;
2750;SDS011;1383;48.362;10.908;2023-05-20T10:31:15;6.63;;;6.00;;
2750;SDS011;1383;48.362;10.908;2023-05-20T10:33:44;6.87;;;5.63;;
2750;SDS011;1383;48.362;10.908;2023-05-20T10:39:13;6.40;;;5.60;;
2750;SDS011;1383;48.362;10.908;2023-05-20T10:41:44;7.00;;;5.60;;
2750;SDS011;1383;48.362;10.908;2023-05-20T10:44:10;5.87;;;5.37;;
2750;SDS011;1383;48.362;10.908;2023-05-20T10:46:37;7.67;;;5.60;;
2750;SDS011;1383;48.362;10.908;2023-05-20T10:49:24;5.70;;;5.20;;
2750;SDS011;1383;48.362;10.908;2023-05-20T10:52:00;5.33;;;4.93;;
2750;SDS011;1383;48.362;10.908;2023-05-20T10:54:27;6.73;;;5.77;;
2750;SDS011;1383;48.362;10.908;2023-05-20T10:56:54;9.50;;;6.47;;
2750;SDS011;1383;48.362;10.908;2023-05-20T10:59:22;6.60;;;5.83;;
2750;SDS011;1383;48.362;10.908;2023-05-20T11:01:49;7.40;;;5.80;;
2750;SDS011;1383;48.362;10.908;2023-05-20T11:04:16;7.17;;;6.50;;
2750;SDS011;1383;48.362;10.908;2023-05-20T11:06:50;6.63;;;6.03;;
2750;SDS011;1383;48.362;10.908;2023-05-20T11:09:21;8.73;;;6.00;;
2750;SDS011;1383;48.362;10.908;2023-05-20T11:11:49;8.23;;;6.10;;
2750;SDS011;1383;48.362;10.908;2023-05-20T11:14:17;6.57;;;5.93;;
2750;SDS011;1383;48.362;10.908;2023-05-20T11:16:45;8.63;;;7.33;;
2750;SDS011;1383;48.362;10.908;2023-05-20T11:19:16;5.10;;;4.60;;
2750;SDS011;1383;48.362;10.908;2023-05-20T11:21:44;6.37;;;5.67;;
2750;SDS011;1383;48.362;10.908;2023-05-20T11:24:12;6.53;;;5.93;;
2750;SDS011;1383;48.362;10.908;2023-05-20T11:26:39;6.20;;;5.67;;
2750;SDS011;1383;48.362;10.908;2023-05-20T11:29:06;6.40;;;5.90;;
2750;SDS011;1383;48.362;10.908;2023-05-20T11:31:33;5.00;;;4.60;;
2750;SDS011;1383;48.362;10.908;2023-05-20T11:34:03;5.53;;;5.03;;
2750;SDS011;1383;48.362;10.908;2023-05-20T11:36:30;6.73;;;5.50;;
2750;SDS011;1383;48.362;10.908;2023-05-20T11:38:57;10.53;;;5.20;;
2750;SDS011;1383;48.362;10.908;2023-05-20T11:41:26;5.77;;;5.20;;
2750;SDS011;1383;48.362;10.908;2023-05-20T11:43:56;6.40;;;5.70;;
2750;SDS011;1383;48.362;10.908;2023-05-20T11:46:25;5.50;;;5.07;;
2750;SDS011;1383;48.362;10.908;2023-05-20T11:48:53;7.20;;;5.67;;
2750;SDS011;1383;48.362;10.908;2023-05-20T11:51:27;9.73;;;8.70;;
2750;SDS011;1383;48.362;10.908;2023-05-20T11:54:04;6.10;;;5.50;;
2750;SDS011;1383;48.362;10.908;2023-05-20T11:56:32;7.40;;;6.70;;
2750;SDS011;1383;48.362;10.908;2023-05-20T11:59:02;5.60;;;5.10;;
2750;SDS011;1383;48.362;10.908;2023-05-20T12:01:38;6.10;;;5.60;;
2750;SDS011;1383;48.362;10.908;2023-05-20T12:04:08;6.13;;;5.07;;
2750;SDS011;1383;48.362;10.908;2023-05-20T12:06:36;7.23;;;5.30;;
2750;SDS011;1383;48.362;10.908;2023-05-20T12:09:03;7.10;;;5.40;;
2750;SDS011;1383;48.362;10.908;2023-05-20T12:11:35;6.83;;;5.20;;
2750;SDS011;1383;48.362;10.908;2023-05-20T12:14:04;6.53;;;5.93;;
2750;SDS011;1383;48.362;10.908;2023-05-20T12:16:32;4.90;;;4.50;;
2750;SDS011;1383;48.362;10.908;2023-05-20T12:19:00;6.40;;;5.90;;
2750;SDS011;1383;48.362;10.908;2023-05-20T12:21:27;7.43;;;4.10;;
2750;SDS011;1383;48.362;10.908;2023-05-20T12:23:55;4.80;;;4.40;;
2750;SDS011;1383;48.362;10.908;2023-05-20T12:26:23;5.53;;;5.03;;
2750;SDS011;1383;48.362;10.908;2023-05-20T12:28:51;5.10;;;4.60;;
2750;SDS011;1383;48.362;10.908;2023-05-20T12:31:18;5.67;;;5.07;;
2750;SDS011;1383;48.362;10.908;2023-05-20T12:33:45;4.50;;;4.10;;
2750;SDS011;1383;48.362;10.908;2023-05-20T12:36:12;4.90;;;4.40;;
2750;SDS011;1383;48.362;10.908;2023-05-20T12:38:40;4.80;;;4.40;;
2750;SDS011;1383;48.362;10.908;2023-05-20T12:41:07;5.20;;;3.90;;
2750;SDS011;1383;48.362;10.908;2023-05-20T12:43:34;4.87;;;4.43;;
2750;SDS011;1383;48.362;10.908;2023-05-20T12:46:02;4.20;;;3.90;;
2750;SDS011;1383;48.362;10.908;2023-05-20T12:48:30;4.50;;;4.10;;
2750;SDS011;1383;48.362;10.908;2023-05-20T12:50:57;4.40;;;4.00;;
2750;SDS011;1383;48.362;10.908;2023-05-20T12:53:23;5.87;;;3.53;;
2750;SDS011;1383;48.362;10.908;2023-05-20T12:55:50;5.40;;;5.00;;
2750;SDS011;1383;48.362;10.908;2023-05-20T12:58:17;4.40;;;4.00;;
2750;SDS011;1383;48.362;10.908;2023-05-20T13:00:44;6.50;;;5.13;;
2750;SDS011;1383;48.362;10.908;2023-05-20T13:03:11;6.30;;;5.70;;
2750;SDS011;1383;48.362;10.908;2023-05-20T13:05:38;5.63;;;5.20;;
2750;SDS011;1383;48.362;10.908;2023-05-20T13:08:05;6.13;;;4.80;;
2750;SDS011;1383;48.362;10.908;2023-05-20T13:10:34;5.93;;;5.17;;
2750;SDS011;1383;48.362;10.908;2023-05-20T13:13:01;6.33;;;5.20;;
2750;SDS011;1383;48.362;10.908;2023-05-20T13:15:28;4.90;;;4.40;;
2750;SDS011;1383;48.362;10.908;2023-05-20T13:17:55;5.30;;;4.87;;
2750;SDS011;1383;48.362;10.908;2023-05-20T13:20:22;8.27;;;5.57;;
2750;SDS011;1383;48.362;10.908;2023-05-20T13:22:49;5.40;;;4.90;;
2750;SDS011;1383;48.362;10.908;2023-05-20T13:25:16;4.20;;;3.90;;
2750;SDS011;1383;48.362;10.908;2023-05-20T13:27:43;6.70;;;6.10;;
2750;SDS011;1383;48.362;10.908;2023-05-20T13:30:09;4.90;;;4.50;;
2750;SDS011;1383;48.362;10.908;2023-05-20T13:32:36;5.20;;;4.70;;
2750;SDS011;1383;48.362;10.908;2023-05-20T13:35:03;5.73;;;5.00;;
2750;SDS011;1383;48.362;10.908;2023-05-20T13:37:30;5.07;;;4.57;;
2750;SDS011;1383;48.362;10.908;2023-05-20T13:39:57;5.07;;;4.57;;
2750;SDS011;1383;48.362;10.908;2023-05-20T13:42:24;6.40;;;5.80;;
2750;SDS011;1383;48.362;10.908;2023-05-20T13:44:51;8.70;;;6.07;;
2750;SDS011;1383;48.362;10.908;2023-05-20T13:47:18;8.10;;;6.90;;
2750;SDS011;1383;48.362;10.908;2023-05-20T13:49:44;5.73;;;4.27;;
2750;SDS011;1383;48.362;10.908;2023-05-20T13:52:11;4.90;;;4.13;;
2750;SDS011;1383;48.362;10.908;2023-05-20T13:54:38;6.37;;;5.27;;
2750;SDS011;1383;48.362;10.908;2023-05-20T13:57:05;5.30;;;4.90;;
2750;SDS011;1383;48.362;10.908;2023-05-20T13:59:33;6.63;;;5.20;;
2750;SDS011;1383;48.362;10.908;2023-05-20T14:02:00;7.77;;;6.63;;
2750;SDS011;1383;48.362;10.908;2023-05-20T14:04:27;6.10;;;5.50;;
2750;SDS011;1383;48.362;10.908;2023-05-20T14:06:56;6.73;;;6.13;;
2750;SDS011;1383;48.362;10.908;2023-05-20T14:09:25;6.43;;;5.80;;
2750;SDS011;1383;48.362;10.908;2023-05-20T14:11:52;6.63;;;6.03;;
2750;SDS011;1383;48.362;10.908;2023-05-20T14:14:18;7.87;;;6.80;;
2750;SDS011;1383;48.362;10.908;2023-05-20T14:16:45;6.20;;;5.63;;
2750;SDS011;1383;48.362;10.908;2023-05-20T14:19:12;6.20;;;5.60;;
2750;SDS011;1383;48.362;10.908;2023-05-20T14:21:39;7.07;;;6.37;;
2750;SDS011;1383;48.362;10.908;2023-05-20T14:24:06;6.50;;;5.90;;
2750;SDS011;1383;48.362;10.908;2023-05-20T14:26:33;6.50;;;5.90;;
2750;SDS011;1383;48.362;10.908;2023-05-20T14:28:59;5.63;;;5.13;;
2750;SDS011;1383;48.362;10.908;2023-05-20T14:31:26;6.90;;;6.23;;
2750;SDS011;1383;48.362;10.908;2023-05-20T14:33:53;6.10;;;5.60;;
2750;SDS011;1383;48.362;10.908;2023-05-20T14:36:20;7.20;;;6.60;;
2750;SDS011;1383;48.362;10.908;2023-05-20T14:38:47;7.70;;;7.00;;
2750;SDS011;1383;48.362;10.908;2023-05-20T14:41:15;10.13;;;7.37;;
2750;SDS011;1383;48.362;10.908;2023-05-20T14:43:41;9.47;;;6.97;;
2750;SDS011;1383;48.362;10.908;2023-05-20T14:46:08;7.60;;;6.03;;
2750;SDS011;1383;48.362;10.908;2023-05-20T14:48:35;7.10;;;6.40;;
2750;SDS011;1383;48.362;10.908;2023-05-20T14:51:02;6.80;;;6.07;;
2750;SDS011;1383;48.362;10.908;2023-05-20T14:53:29;6.63;;;6.03;;
2750;SDS011;1383;48.362;10.908;2023-05-20T14:55:56;7.53;;;6.83;;
2750;SDS011;1383;48.362;10.908;2023-05-20T14:58:23;8.10;;;6.83;;
2750;SDS011;1383;48.362;10.908;2023-05-20T15:00:51;7.20;;;6.60;;
2750;SDS011;1383;48.362;10.908;2023-05-20T15:03:18;8.07;;;7.37;;
2750;SDS011;1383;48.362;10.908;2023-05-20T15:05:45;7.70;;;6.97;;
2750;SDS011;1383;48.362;10.908;2023-05-20T15:08:12;11.17;;;7.00;;
2750;SDS011;1383;48.362;10.908;2023-05-20T15:10:39;7.40;;;6.50;;